Time;durP1;ratioP1;P1;durP2;ratioP2;P2;SDS_P1;SDS_P2;PMS_P1;PMS_P2;Temp;Humidity;BMP_temperature;BMP_pressure;BME280_temperature;BME280_humidity;BME280_pressure;Samples;Min_cycle;Max_cycle;Signal;HPM_P1;HPM_P2
2022/09/24 00:00:01;;;;;;;16.73;12.38;;;10.00;99.90;;;;;;6257760;22;20327;-81
2022/09/24 00:02:50;;;;;;;16.15;12.65;;;10.00;99.90;;;;;;6279316;22;20023;-82
2022/09/24 00:05:39;;;;;;;22.13;14.30;;;10.00;99.90;;;;;;6279617;22;20023;-81
2022/09/24 00:08:26;;;;;;;18.92;12.68;;;10.00;99.90;;;;;;6275944;22;20406;-81
2022/09/24 00:11:14;;;;;;;17.77;11.73;;;10.00;99.90;;;;;;6276224;22;20062;-81
2022/09/24 00:14:01;;;;;;;16.48;13.00;;;10.10;99.90;;;;;;6276674;22;20023;-81
2022/09/24 00:16:53;;;;;;;19.52;13.88;;;10.10;99.90;;;;;;6257400;22;20077;-81
2022/09/24 00:19:40;;;;;;;17.83;13.60;;;10.00;99.90;;;;;;6277491;22;20051;-80
2022/09/24 00:22:30;;;;;;;16.30;12.80;;;10.00;99.90;;;;;;6276234;22;20241;-81
2022/09/24 00:28:25;;;;;;;23.00;14.50;;;9.80;99.90;;;;;;6279024;22;20019;-81
2022/09/24 00:31:15;;;;;;;18.83;13.48;;;9.70;99.90;;;;;;6280636;22;20031;-81
2022/09/24 00:34:05;;;;;;;25.85;14.73;;;9.60;99.90;;;;;;6279281;22;20036;-81
2022/09/24 00:36:52;;;;;;;21.25;15.32;;;9.50;99.90;;;;;;6279790;22;20019;-80
2022/09/24 00:39:39;;;;;;;22.90;15.80;;;9.50;1.00;;;;;;6280276;22;20023;-81
2022/09/24 00:42:31;;;;;;;20.98;14.90;;;9.40;1.00;;;;;;6277068;22;20024;-81
2022/09/24 00:45:19;;;;;;;20.65;14.30;;;9.40;15.80;;;;;;6278400;22;20405;-81
2022/09/24 00:48:07;;;;;;;22.42;14.27;;;9.50;99.90;;;;;;6281355;22;20039;-82
2022/09/24 00:50:54;;;;;;;19.73;13.38;;;9.50;99.90;;;;;;6279525;22;20046;-81
2022/09/24 00:53:44;;;;;;;17.13;12.95;;;9.50;41.70;;;;;;6282966;22;20020;-81
2022/09/24 00:56:35;;;;;;;25.02;15.35;;;9.40;22.00;;;;;;6266130;22;20023;-81
2022/09/24 00:59:23;;;;;;;21.60;15.82;;;9.20;97.40;;;;;;6281657;22;20030;-81
2022/09/24 01:02:11;;;;;;;20.85;14.68;;;9.30;99.90;;;;;;6286457;22;20304;-79
2022/09/24 01:04:59;;;;;;;20.00;14.45;;;9.30;99.90;;;;;;6282663;22;20054;-81
2022/09/24 01:07:47;;;;;;;17.92;13.85;;;9.20;99.90;;;;;;6280489;22;20027;-81
2022/09/24 01:11:02;;;;;;;20.23;13.88;;;9.20;99.90;;;;;;6282333;22;20054;-79
2022/09/24 01:14:14;;;;;;;19.40;14.63;;;9.10;99.90;;;;;;6255962;22;20020;-82
2022/09/24 01:17:22;;;;;;;27.20;16.17;;;9.00;99.90;;;;;;6275707;22;20020;-80
2022/09/24 01:20:28;;;;;;;23.10;16.17;;;8.90;99.90;;;;;;6276650;22;20034;-81
2022/09/24 01:23:24;;;;;;;25.38;17.52;;;8.80;99.90;;;;;;6278644;22;20027;-80
2022/09/24 01:26:18;;;;;;;26.95;18.45;;;8.70;1.00;;;;;;6276305;22;20027;-81
2022/09/24 01:29:43;;;;;;;24.00;18.83;;;8.80;99.90;;;;;;6255663;22;20038;-81
2022/09/24 01:32:37;;;;;;;23.92;17.85;;;8.90;1.00;;;;;;6278304;22;20039;-82
2022/09/24 01:35:44;;;;;;;25.95;17.98;;;8.90;1.00;;;;;;6278883;22;20098;-81
2022/09/24 01:38:43;;;;;;;26.30;17.85;;;8.90;1.00;;;;;;6255450;22;20019;-81
2022/09/24 01:41:35;;;;;;;24.88;17.38;;;8.90;99.90;;;;;;6277219;22;20400;-81
2022/09/24 01:44:22;;;;;;;26.45;17.40;;;8.80;99.90;;;;;;6254919;22;20408;-81
2022/09/24 01:47:17;;;;;;;23.35;16.30;;;8.80;99.90;;;;;;6276369;22;20027;-81
2022/09/24 01:50:11;;;;;;;24.35;17.58;;;8.70;99.90;;;;;;6277701;22;20038;-80
2022/09/24 01:53:08;;;;;;;;;;;8.60;99.90;;;;;;6256041;22;20107;-81
2022/09/24 01:56:07;;;;;;;24.08;17.10;;;8.60;1.00;;;;;;6276004;22;19915;-82
2022/09/24 01:59:02;;;;;;;25.40;17.50;;;8.60;1.00;;;;;;6274510;22;20114;-81
2022/09/24 02:01:55;;;;;;;24.67;17.85;;;8.60;1.00;;;;;;6274958;22;20133;-81
2022/09/24 02:04:44;;;;;;;;;;;8.60;99.90;;;;;;6275387;22;20346;-81
2022/09/24 02:07:38;;;;;;;24.67;16.88;;;8.60;99.90;;;;;;6275694;22;19915;-81
2022/09/24 02:10:30;;;;;;;27.05;16.40;;;8.70;99.90;;;;;;6277515;22;20016;-81
2022/09/24 02:13:26;;;;;;;21.08;12.88;;;8.60;99.90;;;;;;6275095;22;20273;-81
2022/09/24 02:16:17;;;;;;;22.25;16.33;;;8.60;99.90;;;;;;6276670;22;20038;-81
2022/09/24 02:19:08;;;;;;;26.10;16.08;;;8.60;99.90;;;;;;6274519;22;20092;-81
2022/09/24 02:21:57;;;;;;;23.40;15.82;;;8.60;99.90;;;;;;6276504;22;20028;-81
2022/09/24 02:24:48;;;;;;;24.05;17.10;;;8.60;99.90;;;;;;6276693;22;20063;-81
2022/09/24 02:27:40;;;;;;;25.08;14.85;;;8.70;99.90;;;;;;6254588;22;20028;-81
2022/09/24 02:30:30;;;;;;;22.60;15.02;;;8.70;99.90;;;;;;6276377;22;20023;-81
2022/09/24 02:36:26;;;;;;;21.35;16.17;;;8.70;1.00;;;;;;6279138;22;20024;-80
2022/09/24 02:39:19;;;;;;;19.90;15.65;;;8.70;1.00;;;;;;6278474;22;20020;-81
2022/09/24 02:42:09;;;;;;;25.70;18.70;;;8.70;1.00;;;;;;6276933;22;20043;-80
2022/09/24 02:44:59;;;;;;;25.58;18.40;;;8.70;92.90;;;;;;6258811;22;20109;-80
2022/09/24 02:47:46;;;;;;;24.23;18.23;;;8.70;99.90;;;;;;6277914;22;20024;-82
2022/09/24 02:50:36;;;;;;;28.48;20.10;;;8.80;99.90;;;;;;6258300;22;20034;-81
2022/09/24 02:53:23;;;;;;;27.08;19.42;;;8.90;1.40;;;;;;6278519;22;20024;-79
2022/09/24 02:56:10;;;;;;;28.70;19.17;;;9.00;99.90;;;;;;6278878;22;20031;-82
2022/09/24 02:58:58;;;;;;;29.83;21.25;;;9.00;99.90;;;;;;6277510;22;20020;-79
2022/09/24 03:01:45;;;;;;;29.63;21.13;;;9.00;99.90;;;;;;6279057;22;20028;-81
2022/09/24 03:04:32;;;;;;;29.80;21.35;;;9.10;99.90;;;;;;6277319;22;20031;-80
2022/09/24 03:07:21;;;;;;;30.50;20.73;;;9.20;99.90;;;;;;6278649;22;20054;-81
2022/09/24 03:10:09;;;;;;;28.98;19.73;;;9.20;99.90;;;;;;6278653;22;20330;-79
2022/09/24 03:12:58;;;;;;;30.83;20.67;;;9.30;1.00;;;;;;6254585;22;20028;-80
2022/09/24 03:15:45;;;;;;;29.20;20.25;;;9.30;99.90;;;;;;6276923;22;20046;-82
2022/09/24 03:18:33;;;;;;;18.90;14.55;;;9.40;99.90;;;;;;6276046;22;20099;-81
2022/09/24 03:21:21;;;;;;;19.63;13.85;;;9.40;76.60;;;;;;6278363;22;20023;-81
2022/09/24 03:24:08;;;;;;;27.00;13.73;;;9.30;1.00;;;;;;6276913;22;20023;-81
2022/09/24 03:26:58;;;;;;;23.17;14.93;;;9.30;99.90;;;;;;6276821;22;20024;-81
2022/09/24 03:32:51;;;;;;;21.75;14.63;;;9.50;99.90;;;;;;6275787;22;20038;-81
2022/09/24 03:35:41;;;;;;;21.05;15.02;;;9.50;99.90;;;;;;6256510;22;20034;-83
2022/09/24 03:38:29;;;;;;;16.73;13.30;;;9.50;56.10;;;;;;6278243;22;20034;-81
2022/09/24 03:41:17;;;;;;;25.90;15.23;;;9.50;1.00;;;;;;6255170;22;20027;-81
2022/09/24 03:44:06;;;;;;;21.15;14.95;;;9.40;1.00;;;;;;6279537;22;20027;-81
2022/09/24 03:46:53;;;;;;;17.55;13.60;;;9.40;1.00;;;;;;6276477;22;20028;-82
2022/09/24 03:49:43;;;;;;;19.08;14.63;;;9.40;1.00;;;;;;6278407;22;20028;-82
2022/09/24 03:52:30;;;;;;;23.30;16.42;;;9.40;1.00;;;;;;6276660;22;20023;-81
2022/09/24 03:55:17;;;;;;;17.70;15.30;;;9.40;12.40;;;;;;6276198;22;20110;-81
2022/09/24 03:58:14;;;;;;;20.25;15.23;;;9.40;10.40;;;;;;6278037;22;20020;-81
2022/09/24 04:01:05;;;;;;;23.98;16.70;;;9.50;1.00;;;;;;6255536;22;20030;-82
2022/09/24 04:03:54;;;;;;;25.30;15.98;;;9.50;1.00;;;;;;6280518;22;20038;-82
2022/09/24 04:06:41;;;;;;;21.65;14.90;;;9.60;1.00;;;;;;6280191;22;20028;-83
2022/09/24 04:09:31;;;;;;;22.00;15.90;;;9.60;1.00;;;;;;6279315;22;20027;-81
2022/09/24 04:12:18;;;;;;;22.20;15.48;;;9.70;1.00;;;;;;6280709;22;20023;-81
2022/09/24 04:15:06;;;;;;;24.58;16.35;;;9.80;1.00;;;;;;6277844;22;20024;-82
2022/09/24 04:18:00;;;;;;;18.08;14.32;;;9.90;1.00;;;;;;6282984;22;20019;-81
2022/09/24 04:20:47;;;;;;;18.40;13.43;;;10.10;99.90;;;;;;6281595;22;20031;-81
2022/09/24 04:23:35;;;;;;;19.75;13.85;;;10.20;99.90;;;;;;6282189;22;20042;-82
2022/09/24 04:26:25;;;;;;;18.35;13.30;;;10.30;99.90;;;;;;6281107;22;20103;-81
2022/09/24 04:29:12;;;;;;;18.55;12.75;;;10.30;99.90;;;;;;6276923;22;20024;-82
2022/09/24 04:31:59;;;;;;;18.15;12.50;;;10.30;99.90;;;;;;6279315;22;20315;-81
2022/09/24 04:34:46;;;;;;;16.83;12.68;;;10.30;99.90;;;;;;6275321;22;20319;-82
2022/09/24 04:37:35;;;;;;;16.25;11.93;;;10.30;99.90;;;;;;6278281;22;20023;-81
2022/09/24 04:40:23;;;;;;;16.73;12.20;;;10.40;99.90;;;;;;6276933;22;20030;-81
2022/09/24 04:43:10;;;;;;;16.63;13.05;;;10.40;99.90;;;;;;6277355;22;20099;-81
2022/09/24 04:45:58;;;;;;;16.13;11.88;;;10.30;99.90;;;;;;6277139;22;20404;-81
2022/09/24 04:48:45;;;;;;;19.42;12.13;;;10.30;99.90;;;;;;6254446;22;20482;-82
2022/09/24 04:51:34;;;;;;;17.52;11.52;;;10.30;99.90;;;;;;6276819;22;20498;-79
2022/09/24 04:54:21;;;;;;;17.90;12.55;;;10.20;99.90;;;;;;6277743;22;20051;-81
2022/09/24 04:57:08;;;;;;;17.40;13.48;;;10.20;99.90;;;;;;6283185;22;20043;-79
2022/09/24 04:59:55;;;;;;;20.45;12.93;;;10.20;99.90;;;;;;6282645;22;20042;-82
2022/09/24 05:02:43;;;;;;;19.83;13.20;;;10.10;99.90;;;;;;6258431;22;20035;-82
2022/09/24 05:05:31;;;;;;;18.10;13.30;;;10.10;99.90;;;;;;6281111;22;20051;-78
2022/09/24 05:08:18;;;;;;;18.52;13.57;;;10.10;99.90;;;;;;6280518;22;20027;-80
2022/09/24 05:11:06;;;;;;;25.38;16.38;;;10.10;99.90;;;;;;6279561;22;20038;-80
2022/09/24 05:13:53;;;;;;;22.42;14.70;;;10.10;99.90;;;;;;6276613;22;20054;-80
2022/09/24 05:16:42;;;;;;;17.73;13.68;;;10.20;99.90;;;;;;6254113;22;20031;-80
2022/09/24 05:19:29;;;;;;;16.92;13.57;;;10.20;99.90;;;;;;6277325;22;20471;-82
2022/09/24 05:22:16;;;;;;;20.92;12.75;;;10.40;99.90;;;;;;6275640;22;20020;-80
2022/09/24 05:25:04;;;;;;;24.98;12.75;;;10.50;99.90;;;;;;6277992;22;20327;-80
2022/09/24 05:27:58;;;;;;;21.27;13.23;;;10.60;99.90;;;;;;6275137;22;20028;-81
2022/09/24 05:30:46;;;;;;;21.08;12.20;;;10.70;99.90;;;;;;6274685;22;20054;-80
2022/09/24 05:33:33;;;;;;;21.13;12.88;;;10.80;67.60;;;;;;6253634;22;20038;-82
2022/09/24 05:36:21;;;;;;;16.60;12.52;;;10.90;35.00;;;;;;6256258;22;20031;-81
2022/09/24 05:39:10;;;;;;;16.33;12.02;;;11.00;13.80;;;;;;6274571;22;20303;-82
2022/09/24 05:41:58;;;;;;;15.13;11.75;;;11.00;1.00;;;;;;6277492;22;20020;-81
2022/09/24 05:44:45;;;;;;;15.80;11.02;;;11.10;1.00;;;;;;6277436;22;20032;-81
2022/09/24 05:47:40;;;;;;;;;;;11.10;1.00;;;;;;6278195;22;20031;-81
2022/09/24 05:50:30;;;;;;;13.93;11.18;;;11.10;1.00;;;;;;6275279;22;19915;-82
2022/09/24 05:53:17;;;;;;;15.48;11.65;;;11.20;1.00;;;;;;6275021;22;20457;-82
2022/09/24 05:56:05;;;;;;;15.13;11.88;;;11.20;1.00;;;;;;6276980;22;20023;-81
2022/09/24 05:58:52;;;;;;;17.20;11.32;;;11.20;1.00;;;;;;6275618;22;20019;-82
2022/09/24 06:01:41;;;;;;;14.38;11.30;;;11.30;1.00;;;;;;6275214;22;20542;-81
2022/09/24 06:04:28;;;;;;;18.15;13.00;;;11.30;1.00;;;;;;6258930;22;20038;-81
2022/09/24 06:07:15;;;;;;;16.63;12.20;;;11.40;1.00;;;;;;6278440;22;20028;-81
2022/09/24 06:10:06;;;;;;;18.67;11.70;;;11.40;1.00;;;;;;6279070;22;20027;-82
2022/09/24 06:12:53;;;;;;;15.98;11.95;;;11.40;1.00;;;;;;6258390;22;20318;-82
2022/09/24 06:15:41;;;;;;;16.48;11.30;;;11.60;1.00;;;;;;6276666;22;20418;-82
2022/09/24 06:18:30;;;;;;;20.30;10.95;;;11.60;1.00;;;;;;6279228;22;20054;-82
2022/09/24 06:21:17;;;;;;;18.63;11.68;;;11.70;1.00;;;;;;6257756;22;20042;-81
2022/09/24 06:24:04;;;;;;;17.17;10.00;;;11.70;1.00;;;;;;6277713;22;20027;-81
2022/09/24 06:26:53;;;;;;;16.38;10.73;;;11.80;1.00;;;;;;6276518;22;20041;-81
2022/09/24 06:29:40;;;;;;;13.90;10.88;;;11.90;1.00;;;;;;6278945;22;20047;-81
2022/09/24 06:32:27;;;;;;;17.20;9.68;;;12.00;1.00;;;;;;6277707;22;20023;-80
2022/09/24 06:35:14;;;;;;;11.95;9.45;;;11.90;1.00;;;;;;6257093;22;20030;-81
2022/09/24 06:38:03;;;;;;;13.90;9.68;;;12.00;1.00;;;;;;6278135;22;20020;-81
2022/09/24 06:40:51;;;;;;;15.65;11.63;;;11.90;1.00;;;;;;6276665;22;20035;-81
2022/09/24 06:43:38;;;;;;;12.75;9.80;;;11.90;1.00;;;;;;6276438;22;20105;-80
2022/09/24 06:46:26;;;;;;;15.18;9.23;;;11.90;1.00;;;;;;6279399;22;20027;-80
2022/09/24 06:49:13;;;;;;;14.63;9.90;;;12.00;1.00;;;;;;6280034;22;20023;-80
2022/09/24 06:52:03;;;;;;;14.60;9.70;;;12.00;1.00;;;;;;6277565;22;20030;-81
2022/09/24 06:54:54;;;;;;;14.45;9.10;;;12.00;1.00;;;;;;6279208;22;20023;-80
2022/09/24 06:57:42;;;;;;;14.02;9.57;;;12.00;1.00;;;;;;6278375;22;20020;-80
2022/09/24 07:00:29;;;;;;;15.88;9.82;;;12.00;1.00;;;;;;6256366;22;20020;-82
2022/09/24 07:03:18;;;;;;;13.15;10.30;;;12.10;1.00;;;;;;6277308;22;20039;-81
2022/09/24 07:06:15;;;;;;;16.35;9.80;;;12.10;1.00;;;;;;6278166;22;20375;-82
2022/09/24 07:09:20;;;;;;;11.95;8.30;;;12.20;1.00;;;;;;6276242;22;20028;-81
2022/09/24 07:12:10;;;;;;;12.02;8.75;;;12.20;1.00;;;;;;6276823;22;20348;-81
2022/09/24 07:14:57;;;;;;;13.23;8.07;;;12.30;1.00;;;;;;6279217;22;20024;-80
2022/09/24 07:17:47;;;;;;;12.35;6.85;;;12.30;1.00;;;;;;6277199;22;20131;-81
2022/09/24 07:20:36;;;;;;;9.32;7.13;;;12.30;1.00;;;;;;6279917;22;20027;-82
2022/09/24 07:23:23;;;;;;;9.27;7.38;;;12.30;1.00;;;;;;6277012;22;20027;-81
2022/09/24 07:26:13;;;;;;;8.95;6.97;;;12.40;1.00;;;;;;6278360;22;20028;-82
2022/09/24 07:29:02;;;;;;;11.30;6.65;;;12.50;1.00;;;;;;6278450;22;20019;-82
2022/09/24 07:31:50;;;;;;;8.88;6.40;;;12.50;1.00;;;;;;6257725;22;20095;-82
2022/09/24 07:34:41;;;;;;;8.57;6.40;;;12.70;1.00;;;;;;6279883;22;20306;-82
2022/09/24 07:37:32;;;;;;;8.50;6.07;;;12.70;1.00;;;;;;6276189;22;20051;-82
2022/09/24 07:40:22;;;;;;;9.48;6.13;;;12.70;1.00;;;;;;6277475;22;20030;-82
2022/09/24 07:43:12;;;;;;;10.73;6.10;;;12.70;1.00;;;;;;6235742;22;20020;-82
2022/09/24 07:46:00;;;;;;;8.52;5.43;;;12.80;1.00;;;;;;6279777;22;20027;-82
2022/09/24 07:48:50;;;;;;;8.98;5.65;;;12.90;1.00;;;;;;6278724;22;20330;-82
2022/09/24 07:51:37;;;;;;;8.60;5.80;;;13.00;1.00;;;;;;6278699;22;20034;-83
2022/09/24 07:54:25;;;;;;;10.77;5.30;;;13.00;1.00;;;;;;6279153;22;20041;-82
2022/09/24 07:57:12;;;;;;;10.25;5.68;;;13.00;1.00;;;;;;6276869;22;20016;-82
2022/09/24 07:59:59;;;;;;;10.23;5.13;;;13.10;1.00;;;;;;6279822;22;20103;-82
2022/09/24 08:02:48;;;;;;;8.45;5.88;;;13.10;1.00;;;;;;6277342;22;20169;-81
2022/09/24 08:05:36;;;;;;;11.02;5.70;;;13.10;1.00;;;;;;6279888;22;20153;-81
2022/09/24 08:08:23;;;;;;;6.20;5.20;;;13.00;1.00;;;;;;6256651;22;20066;-82
2022/09/24 08:11:15;;;;;;;7.65;5.45;;;13.10;1.00;;;;;;6276681;22;20027;-82
2022/09/24 08:14:02;;;;;;;9.77;5.38;;;13.10;1.00;;;;;;6258436;22;20055;-82
2022/09/24 08:16:52;;;;;;;7.65;4.82;;;13.10;1.00;;;;;;6278649;22;20019;-80
2022/09/24 08:19:42;;;;;;;6.65;5.13;;;13.10;1.00;;;;;;6278240;22;20020;-82
2022/09/24 08:22:31;;;;;;;5.75;4.70;;;13.20;1.00;;;;;;6257878;22;20016;-80
2022/09/24 08:25:19;;;;;;;7.05;4.85;;;13.10;1.00;;;;;;6262651;22;20099;-80
2022/09/24 08:28:10;;;;;;;7.38;5.13;;;13.10;1.00;;;;;;6285575;22;20041;-81
2022/09/24 08:31:03;;;;;;;7.93;5.80;;;13.00;1.00;;;;;;6285331;22;20028;-81
2022/09/24 08:33:50;;;;;;;7.90;5.22;;;12.90;1.00;;;;;;6264216;22;20028;-81
2022/09/24 08:36:37;;;;;;;7.22;5.10;;;13.00;1.00;;;;;;6266551;22;20019;-80
2022/09/24 08:39:32;;;;;;;7.20;5.93;;;13.10;1.00;;;;;;6280774;22;20019;-80
2022/09/24 08:43:01;;;;;;;9.30;5.95;;;13.20;1.00;;;;;;6281776;22;20023;-81
2022/09/24 08:49:09;;;;;;;10.73;6.50;;;13.00;1.00;;;;;;6278883;22;20113;-81
2022/09/24 08:52:18;;;;;;;7.88;6.25;;;12.90;12.30;;;;;;6275863;22;20299;-83
2022/09/24 08:55:20;;;;;;;11.52;6.30;;;12.80;51.70;;;;;;6253725;22;20038;-81
2022/09/24 08:58:16;;;;;;;9.65;7.45;;;12.80;99.90;;;;;;6254871;22;20106;-82
2022/09/24 09:01:33;;;;;;;11.45;7.45;;;12.70;99.90;;;;;;6277230;22;20098;-80
2022/09/24 09:04:56;;;;;;;8.88;6.82;;;12.90;99.90;;;;;;6276117;22;20458;-82
2022/09/24 09:07:48;;;;;;;11.43;7.05;;;13.00;99.90;;;;;;6276646;22;20102;-81
2022/09/24 09:10:38;;;;;;;9.02;6.78;;;13.10;99.90;;;;;;6275215;22;20069;-82
2022/09/24 09:13:50;;;;;;;8.77;7.40;;;13.30;99.90;;;;;;6256695;22;20527;-81
2022/09/24 09:17:05;;;;;;;9.38;7.00;;;13.40;99.90;;;;;;6256445;22;20106;-82
2022/09/24 09:19:55;;;;;;;10.35;6.45;;;13.50;99.90;;;;;;6275669;22;20050;-80
2022/09/24 09:22:50;;;;;;;6.65;5.75;;;13.40;99.90;;;;;;6256545;22;20107;-81
2022/09/24 09:25:46;;;;;;;6.75;5.60;;;13.20;99.90;;;;;;6280524;22;20105;-80
2022/09/24 09:28:33;;;;;;;9.85;6.10;;;13.10;99.90;;;;;;6286793;22;20054;-84
2022/09/24 09:31:32;;;;;;;6.60;5.80;;;13.10;99.90;;;;;;6261869;22;20034;-83
2022/09/24 09:34:31;;;;;;;7.45;6.43;;;13.10;99.90;;;;;;6278662;22;20035;-84
2022/09/24 09:37:41;;;;;;;8.07;6.85;;;13.00;99.90;;;;;;6282180;22;20020;-80
2022/09/24 09:40:31;;;;;;;9.60;6.65;;;13.00;99.90;;;;;;6286693;22;20079;-85
2022/09/24 09:43:19;;;;;;;8.88;6.32;;;13.00;99.90;;;;;;6287535;22;20358;-82
2022/09/24 09:46:22;;;;;;;7.68;5.78;;;13.20;99.90;;;;;;6280208;22;20320;-84
2022/09/24 09:49:10;;;;;;;7.65;5.22;;;13.10;99.90;;;;;;6281128;22;20439;-82
2022/09/24 09:52:01;;;;;;;5.65;5.05;;;13.20;99.90;;;;;;6280720;22;20023;-83
2022/09/24 09:54:49;;;;;;;5.07;4.53;;;13.30;99.90;;;;;;6277022;22;20028;-82
2022/09/24 09:57:40;;;;;;;6.15;4.70;;;13.30;99.90;;;;;;6278567;22;20020;-83
2022/09/24 10:00:33;;;;;;;6.30;4.80;;;13.40;99.90;;;;;;6278080;22;20058;-82
2022/09/24 10:03:24;;;;;;;7.50;4.80;;;13.40;99.90;;;;;;6277713;22;20031;-82
2022/09/24 10:06:21;;;;;;;7.70;4.70;;;13.50;99.90;;;;;;6276538;22;20051;-81
2022/09/24 10:09:12;;;;;;;5.47;4.35;;;13.50;99.90;;;;;;6277956;22;20055;-81
2022/09/24 10:12:20;;;;;;;6.83;4.37;;;13.60;99.90;;;;;;6277721;22;20027;-82
2022/09/24 10:15:18;;;;;;;4.97;4.35;;;13.60;99.90;;;;;;6277538;22;20356;-81
2022/09/24 10:18:12;;;;;;;6.18;4.70;;;13.50;99.90;;;;;;6277271;22;20019;-81
2022/09/24 10:21:04;;;;;;;4.90;4.40;;;13.50;99.90;;;;;;6278649;22;20023;-81
2022/09/24 10:23:57;;;;;;;8.07;5.40;;;13.50;99.90;;;;;;6278023;22;20032;-82
2022/09/24 10:26:45;;;;;;;;;;;13.40;99.90;;;;;;6279505;22;20027;-81
2022/09/24 10:32:39;;;;;;;8.38;6.30;;;13.30;99.90;;;;;;6277879;22;20368;-79
2022/09/24 10:35:28;;;;;;;8.38;6.90;;;13.20;99.90;;;;;;6278938;22;20102;-78
2022/09/24 10:38:23;;;;;;;8.30;6.68;;;13.20;1.00;;;;;;6256377;22;20041;-81
2022/09/24 10:41:20;;;;;;;8.70;6.55;;;13.40;1.00;;;;;;6277385;22;20103;-81
2022/09/24 10:44:13;;;;;;;8.70;6.55;;;13.40;1.00;;;;;;6280111;22;20276;-80
2022/09/24 10:47:24;;;;;;;;;;;13.50;1.00;;;;;;6277353;22;20327;-80
2022/09/24 10:50:28;;;;;;;9.15;6.78;;;13.60;1.00;;;;;;6256271;22;19915;-82
2022/09/24 10:53:37;;;;;;;10.30;6.85;;;13.70;1.00;;;;;;6278220;22;20086;-80
2022/09/24 10:56:50;;;;;;;6.43;5.65;;;14.00;1.00;;;;;;6277147;22;20113;-81
2022/09/24 11:00:07;;;;;;;7.00;5.40;;;14.30;1.00;;;;;;6277318;22;20024;-81
2022/09/24 11:03:26;;;;;;;6.18;5.35;;;14.40;99.90;;;;;;6277406;22;20027;-81
2022/09/24 11:06:22;;;;;;;7.57;6.13;;;14.30;99.90;;;;;;6279689;22;20157;-82
2022/09/24 11:09:27;;;;;;;7.43;5.90;;;14.30;99.90;;;;;;6277506;22;20114;-82
2022/09/24 11:12:34;;;;;;;7.43;6.30;;;14.30;99.90;;;;;;6277471;22;20469;-81
2022/09/24 11:15:58;;;;;;;10.60;6.97;;;14.50;99.90;;;;;;6280403;22;20096;-81
2022/09/24 11:19:04;;;;;;;7.68;6.43;;;14.50;99.90;;;;;;6278896;22;20047;-81
2022/09/24 11:22:09;;;;;;;9.40;6.75;;;14.50;99.90;;;;;;6276674;22;20027;-83
2022/09/24 11:25:29;;;;;;;11.90;7.28;;;14.50;99.90;;;;;;6278232;22;20089;-81
2022/09/24 11:28:39;;;;;;;10.18;7.50;;;14.90;99.90;;;;;;6277650;22;20024;-80
2022/09/24 11:31:41;;;;;;;7.70;5.88;;;15.40;99.90;;;;;;6277958;22;20028;-80
2022/09/24 11:34:43;;;;;;;7.73;5.83;;;15.70;12.80;;;;;;6278250;22;20461;-80
2022/09/24 11:37:30;;;;;;;7.80;5.82;;;15.80;1.00;;;;;;6280110;22;20303;-81
2022/09/24 11:40:20;;;;;;;8.32;6.13;;;15.70;1.00;;;;;;6278185;22;20098;-80
2022/09/24 11:43:19;;;;;;;10.38;7.13;;;15.20;1.00;;;;;;6277817;22;20027;-80
2022/09/24 11:46:44;;;;;;;6.97;6.28;;;14.90;1.00;;;;;;6277387;22;20032;-81
2022/09/24 11:49:55;;;;;;;8.02;6.38;;;14.90;1.00;;;;;;6278265;22;20024;-81
2022/09/24 11:53:03;;;;;;;7.93;5.72;;;14.90;1.00;;;;;;6278470;22;20028;-79
2022/09/24 11:56:16;;;;;;;8.00;6.38;;;14.90;1.00;;;;;;6255019;22;20024;-79
2022/09/24 11:59:18;;;;;;;;;;;15.00;1.00;;;;;;6277315;22;20023;-81
2022/09/24 12:02:12;;;;;;;8.05;5.93;;;15.10;1.00;;;;;;6275959;22;19915;-81
2022/09/24 12:05:08;;;;;;;7.70;5.22;;;15.10;1.00;;;;;;6279433;22;20412;-82
2022/09/24 12:08:20;;;;;;;8.10;5.30;;;15.10;1.00;;;;;;6277298;22;20030;-80
2022/09/24 12:11:19;;;;;;;5.10;4.00;;;15.10;1.00;;;;;;6279951;22;20111;-80
2022/09/24 12:14:28;;;;;;;8.98;4.85;;;15.00;1.00;;;;;;6280093;22;20074;-81
2022/09/24 12:17:23;;;;;;;7.95;5.25;;;15.00;1.00;;;;;;6276737;22;20098;-82
2022/09/24 12:20:27;;;;;;;6.78;5.63;;;15.00;1.00;;;;;;6256332;22;20035;-81
2022/09/24 12:23:18;;;;;;;5.93;4.70;;;14.80;1.00;;;;;;6275723;22;20024;-81
2022/09/24 12:26:06;;;;;;;5.70;4.63;;;14.80;1.00;;;;;;6277136;22;20031;-82
2022/09/24 12:32:58;;;;;;;6.47;4.85;;;14.40;1.00;;;;;;6277335;22;20027;-81
2022/09/24 12:35:56;;;;;;;8.43;5.43;;;14.30;1.00;;;;;;6275808;22;20557;-80
2022/09/24 12:38:51;;;;;;;8.02;4.90;;;14.30;53.50;;;;;;6279176;22;20459;-80
2022/09/24 12:41:44;;;;;;;9.65;4.53;;;14.30;91.50;;;;;;6278180;22;20020;-82
2022/09/24 12:44:50;;;;;;;4.18;3.60;;;14.20;82.10;;;;;;6275892;22;20024;-79
2022/09/24 12:47:48;;;;;;;5.15;4.00;;;14.10;65.10;;;;;;6276111;22;20037;-80
2022/09/24 12:50:38;;;;;;;4.88;3.40;;;14.10;69.10;;;;;;6276303;22;20039;-81
2022/09/24 12:53:33;;;;;;;4.97;4.38;;;14.00;99.90;;;;;;6275845;22;20039;-81
2022/09/24 12:56:25;;;;;;;5.68;4.47;;;14.00;99.90;;;;;;6276147;22;20114;-81
2022/09/24 12:59:26;;;;;;;8.27;4.60;;;14.10;99.90;;;;;;6275999;22;20023;-81
2022/09/24 13:02:40;;;;;;;5.75;4.78;;;14.10;99.90;;;;;;6277526;22;20015;-86
2022/09/24 13:05:33;;;;;;;5.78;4.18;;;14.00;99.90;;;;;;6278375;22;20515;-85
2022/09/24 13:08:26;;;;;;;8.60;4.80;;;13.90;99.90;;;;;;6255889;22;20020;-86
2022/09/24 13:11:40;;;;;;;;;;;13.70;99.90;;;;;;6276838;22;20015;-86
2022/09/24 13:14:31;;;;;;;5.53;4.93;;;13.70;99.90;;;;;;6278152;22;19980;-86
2022/09/24 13:17:18;;;;;;;6.70;5.82;;;13.80;1.00;;;;;;6276178;22;20019;-85
2022/09/24 13:20:17;;;;;;;10.02;7.13;;;13.80;1.00;;;;;;6279301;22;20051;-86
2022/09/24 13:23:19;;;;;;;8.95;6.22;;;13.90;1.00;;;;;;6278687;22;20110;-84
2022/09/24 13:26:11;;;;;;;5.63;5.13;;;14.10;1.00;;;;;;6254132;22;20109;-84
2022/09/24 13:29:05;;;;;;;6.82;5.18;;;14.30;1.00;;;;;;6255859;22;20174;-84
2022/09/24 13:32:02;;;;;;;7.00;4.68;;;14.60;1.00;;;;;;6254372;22;20040;-85
2022/09/24 13:34:50;;;;;;;4.75;4.25;;;14.90;99.90;;;;;;6276141;22;20024;-85
2022/09/24 13:37:42;;;;;;;6.78;4.60;;;15.00;99.90;;;;;;6256698;22;20024;-86
2022/09/24 13:40:36;;;;;;;5.75;4.13;;;15.30;99.90;;;;;;6256404;22;20098;-85
2022/09/24 13:43:50;;;;;;;4.57;3.83;;;15.50;99.90;;;;;;6278918;22;20034;-85
2022/09/24 13:46:41;;;;;;;3.75;3.42;;;16.60;21.20;;;;;;6278040;22;20027;-85
2022/09/24 13:49:30;;;;;;;9.32;5.75;;;17.00;1.00;;;;;;6278381;22;20495;-85
2022/09/24 13:53:03;;;;;;;5.75;3.42;;;17.80;1.00;;;;;;6276233;22;20114;-86
2022/09/24 13:56:01;;;;;;;3.70;3.30;;;17.30;99.90;;;;;;6239091;22;20115;-87
2022/09/24 13:59:02;;;;;;;5.15;3.45;;;16.70;99.90;;;;;;6278273;22;20370;-86
2022/09/24 14:01:49;;;;;;;6.35;3.47;;;16.20;99.90;;;;;;6255506;22;20098;-86
2022/09/24 14:04:41;;;;;;;4.93;3.03;;;15.70;99.90;;;;;;6254310;22;20032;-85
2022/09/24 14:07:28;;;;;;;13.40;4.18;;;15.50;1.00;;;;;;6281357;22;20028;-85
2022/09/24 14:10:16;;;;;;;4.28;3.72;;;15.40;1.00;;;;;;6284546;22;20027;-85
2022/09/24 14:13:21;;;;;;;4.10;3.33;;;15.40;1.00;;;;;;6285688;22;20054;-86
2022/09/24 14:16:13;;;;;;;3.85;3.38;;;15.50;1.00;;;;;;6295146;22;20023;-84
2022/09/24 14:19:12;;;;;;;4.75;3.90;;;15.50;1.00;;;;;;6296580;22;20103;-84
2022/09/24 14:22:09;;;;;;;5.63;3.70;;;15.50;1.00;;;;;;6293641;22;20343;-85
2022/09/24 14:25:06;;;;;;;5.13;3.45;;;15.40;1.00;;;;;;6297536;22;20044;-86
2022/09/24 14:27:57;;;;;;;5.07;3.20;;;15.30;1.00;;;;;;6303902;22;20075;-83
2022/09/24 14:30:54;;;;;;;4.82;3.22;;;15.20;1.00;;;;;;6283422;22;20027;-84
2022/09/24 14:33:44;;;;;;;4.40;3.50;;;15.10;1.00;;;;;;6302539;22;20050;-84
2022/09/24 14:36:35;;;;;;;6.50;4.30;;;15.10;1.00;;;;;;6294625;22;20016;-84
2022/09/24 14:39:30;;;;;;;5.25;3.45;;;15.10;1.00;;;;;;6286747;22;20115;-85
2022/09/24 14:42:34;;;;;;;5.90;3.83;;;15.10;1.00;;;;;;6287748;22;20024;-84
2022/09/24 14:45:36;;;;;;;3.83;3.00;;;15.10;1.00;;;;;;6267106;22;20024;-86
2022/09/24 14:48:31;;;;;;;6.50;3.80;;;15.20;1.00;;;;;;6289318;22;20036;-85
2022/09/24 14:51:31;;;;;;;3.78;3.08;;;15.20;1.00;;;;;;6286201;22;20243;-85
2022/09/24 14:54:27;;;;;;;4.03;3.42;;;15.20;1.00;;;;;;6281964;22;20023;-85
2022/09/24 14:57:24;;;;;;;4.60;4.10;;;15.20;1.00;;;;;;6278890;22;20111;-87
2022/09/24 15:00:25;;;;;;;4.43;3.55;;;15.30;1.00;;;;;;6280705;22;20091;-85
2022/09/24 15:03:18;;;;;;;5.35;3.90;;;15.50;8.50;;;;;;6279361;22;20023;-86
2022/09/24 15:06:18;;;;;;;4.13;3.70;;;15.60;59.80;;;;;;6284681;22;20023;-86
2022/09/24 15:09:19;;;;;;;5.85;4.28;;;15.80;41.80;;;;;;6277519;22;20027;-85
2022/09/24 15:12:19;;;;;;;6.72;4.63;;;16.00;7.70;;;;;;6280941;22;20039;-85
2022/09/24 15:15:27;;;;;;;9.40;4.80;;;16.00;1.00;;;;;;6278591;22;20028;-85
2022/09/24 15:18:17;;;;;;;4.55;3.88;;;16.10;1.00;;;;;;6276002;22;20089;-86
2022/09/24 15:21:09;;;;;;;6.75;4.30;;;16.10;1.00;;;;;;6278078;22;20453;-85